sensor_id;sensor_type;location;lat;lon;timestamp;temperature;humidity
14140;DHT22;7150;53.514;9.988;2023-03-01T00:01:18;8.60;68.30
14140;DHT22;7150;53.514;9.988;2023-03-01T00:03:44;8.70;68.20
14140;DHT22;7150;53.514;9.988;2023-03-01T00:06:09;8.70;68.10
14140;DHT22;7150;53.514;9.988;2023-03-01T00:08:35;8.70;67.90
14140;DHT22;7150;53.514;9.988;2023-03-01T00:13:38;8.70;67.80
14140;DHT22;7150;53.514;9.988;2023-03-01T00:16:05;8.70;67.80
14140;DHT22;7150;53.514;9.988;2023-03-01T00:18:31;8.70;68.10
14140;DHT22;7150;53.514;9.988;2023-03-01T00:20:57;8.70;67.80
14140;DHT22;7150;53.514;9.988;2023-03-01T00:23:23;8.70;67.90
14140;DHT22;7150;53.514;9.988;2023-03-01T00:25:49;8.70;67.90
14140;DHT22;7150;53.514;9.988;2023-03-01T00:28:15;8.70;68.00
14140;DHT22;7150;53.514;9.988;2023-03-01T00:30:41;8.70;68.00
14140;DHT22;7150;53.514;9.988;2023-03-01T00:33:07;8.70;67.70
14140;DHT22;7150;53.514;9.988;2023-03-01T00:35:33;8.70;67.60
14140;DHT22;7150;53.514;9.988;2023-03-01T00:37:58;8.60;67.50
14140;DHT22;7150;53.514;9.988;2023-03-01T00:40:25;8.60;67.40
14140;DHT22;7150;53.514;9.988;2023-03-01T00:42:50;8.60;67.40
14140;DHT22;7150;53.514;9.988;2023-03-01T00:45:16;8.60;67.40
14140;DHT22;7150;53.514;9.988;2023-03-01T00:47:42;8.60;67.40
14140;DHT22;7150;53.514;9.988;2023-03-01T00:50:08;8.50;67.40
14140;DHT22;7150;53.514;9.988;2023-03-01T00:52:34;8.50;67.50
14140;DHT22;7150;53.514;9.988;2023-03-01T00:54:59;8.50;67.60
14140;DHT22;7150;53.514;9.988;2023-03-01T00:57:25;8.50;67.70
14140;DHT22;7150;53.514;9.988;2023-03-01T00:59:50;8.50;67.70
14140;DHT22;7150;53.514;9.988;2023-03-01T01:02:18;8.40;67.60
14140;DHT22;7150;53.514;9.988;2023-03-01T01:04:44;8.40;67.50
14140;DHT22;7150;53.514;9.988;2023-03-01T01:07:09;8.50;67.50
14140;DHT22;7150;53.514;9.988;2023-03-01T01:09:35;8.40;67.40
14140;DHT22;7150;53.514;9.988;2023-03-01T01:12:01;8.40;67.50
14140;DHT22;7150;53.514;9.988;2023-03-01T01:14:26;8.40;67.50
14140;DHT22;7150;53.514;9.988;2023-03-01T01:16:52;8.40;67.50
14140;DHT22;7150;53.514;9.988;2023-03-01T01:19:18;8.40;67.60
14140;DHT22;7150;53.514;9.988;2023-03-01T01:21:44;8.40;67.60
14140;DHT22;7150;53.514;9.988;2023-03-01T01:24:10;8.40;67.50
14140;DHT22;7150;53.514;9.988;2023-03-01T01:26:36;8.30;67.40
14140;DHT22;7150;53.514;9.988;2023-03-01T01:29:04;8.30;67.50
14140;DHT22;7150;53.514;9.988;2023-03-01T01:31:31;8.30;67.70
14140;DHT22;7150;53.514;9.988;2023-03-01T01:33:59;8.30;67.80
14140;DHT22;7150;53.514;9.988;2023-03-01T01:36:24;8.30;67.90
14140;DHT22;7150;53.514;9.988;2023-03-01T01:38:50;8.30;67.80
14140;DHT22;7150;53.514;9.988;2023-03-01T01:41:18;8.30;67.70
14140;DHT22;7150;53.514;9.988;2023-03-01T01:43:46;8.20;67.70
14140;DHT22;7150;53.514;9.988;2023-03-01T01:46:29;8.20;67.80
14140;DHT22;7150;53.514;9.988;2023-03-01T01:49:00;8.20;68.00
14140;DHT22;7150;53.514;9.988;2023-03-01T01:51:31;8.10;68.00
14140;DHT22;7150;53.514;9.988;2023-03-01T01:54:08;8.20;68.20
14140;DHT22;7150;53.514;9.988;2023-03-01T01:56:37;8.20;68.10
14140;DHT22;7150;53.514;9.988;2023-03-01T01:59:04;8.10;68.10
14140;DHT22;7150;53.514;9.988;2023-03-01T02:01:30;8.10;68.30
14140;DHT22;7150;53.514;9.988;2023-03-01T02:03:55;8.10;68.40
14140;DHT22;7150;53.514;9.988;2023-03-01T02:06:31;8.20;68.50
14140;DHT22;7150;53.514;9.988;2023-03-01T02:09:03;8.20;68.50
14140;DHT22;7150;53.514;9.988;2023-03-01T02:11:30;8.20;68.50
14140;DHT22;7150;53.514;9.988;2023-03-01T02:13:56;8.20;68.50
14140;DHT22;7150;53.514;9.988;2023-03-01T02:16:22;8.20;68.50
14140;DHT22;7150;53.514;9.988;2023-03-01T02:18:47;8.20;68.60
14140;DHT22;7150;53.514;9.988;2023-03-01T02:21:38;8.20;68.60
14140;DHT22;7150;53.514;9.988;2023-03-01T02:24:32;8.10;68.40
14140;DHT22;7150;53.514;9.988;2023-03-01T02:27:00;8.10;68.50
14140;DHT22;7150;53.514;9.988;2023-03-01T02:29:26;8.10;68.70
14140;DHT22;7150;53.514;9.988;2023-03-01T02:31:54;8.20;68.80
14140;DHT22;7150;53.514;9.988;2023-03-01T02:34:23;8.10;68.70
14140;DHT22;7150;53.514;9.988;2023-03-01T02:37:02;8.10;68.70
14140;DHT22;7150;53.514;9.988;2023-03-01T02:39:40;8.10;68.70
14140;DHT22;7150;53.514;9.988;2023-03-01T02:42:13;8.00;68.70
14140;DHT22;7150;53.514;9.988;2023-03-01T02:44:40;8.00;68.90
14140;DHT22;7150;53.514;9.988;2023-03-01T02:47:05;8.00;68.90
14140;DHT22;7150;53.514;9.988;2023-03-01T02:49:33;8.00;68.90
14140;DHT22;7150;53.514;9.988;2023-03-01T02:55:16;8.00;68.90
14140;DHT22;7150;53.514;9.988;2023-03-01T02:57:44;8.00;69.00
14140;DHT22;7150;53.514;9.988;2023-03-01T03:00:13;7.90;69.00
14140;DHT22;7150;53.514;9.988;2023-03-01T03:02:45;7.90;69.00
14140;DHT22;7150;53.514;9.988;2023-03-01T03:05:14;7.90;69.10
14140;DHT22;7150;53.514;9.988;2023-03-01T03:07:41;7.90;69.20
14140;DHT22;7150;53.514;9.988;2023-03-01T03:10:29;7.90;69.20
14140;DHT22;7150;53.514;9.988;2023-03-01T03:12:57;8.00;69.30
14140;DHT22;7150;53.514;9.988;2023-03-01T03:15:25;7.90;69.30
14140;DHT22;7150;53.514;9.988;2023-03-01T03:17:52;7.90;69.30
14140;DHT22;7150;53.514;9.988;2023-03-01T03:20:20;7.90;69.30
14140;DHT22;7150;53.514;9.988;2023-03-01T03:22:48;8.00;69.40
14140;DHT22;7150;53.514;9.988;2023-03-01T03:25:15;7.90;69.30
14140;DHT22;7150;53.514;9.988;2023-03-01T03:27:43;7.90;69.30
14140;DHT22;7150;53.514;9.988;2023-03-01T03:30:10;7.90;69.40
14140;DHT22;7150;53.514;9.988;2023-03-01T03:32:38;7.90;69.40
14140;DHT22;7150;53.514;9.988;2023-03-01T03:35:05;7.90;69.50
14140;DHT22;7150;53.514;9.988;2023-03-01T03:37:38;7.90;69.70
14140;DHT22;7150;53.514;9.988;2023-03-01T03:40:23;7.90;69.70
14140;DHT22;7150;53.514;9.988;2023-03-01T03:42:48;7.90;69.90
14140;DHT22;7150;53.514;9.988;2023-03-01T03:45:15;7.90;69.90
14140;DHT22;7150;53.514;9.988;2023-03-01T03:47:41;7.90;70.60
14140;DHT22;7150;53.514;9.988;2023-03-01T03:50:07;7.90;70.00
14140;DHT22;7150;53.514;9.988;2023-03-01T03:52:33;7.90;70.00
14140;DHT22;7150;53.514;9.988;2023-03-01T03:54:59;8.00;70.10
14140;DHT22;7150;53.514;9.988;2023-03-01T03:57:24;8.00;70.00
14140;DHT22;7150;53.514;9.988;2023-03-01T03:59:49;8.00;69.90
14140;DHT22;7150;53.514;9.988;2023-03-01T04:02:15;8.10;69.90
14140;DHT22;7150;53.514;9.988;2023-03-01T04:04:50;8.10;69.80
14140;DHT22;7150;53.514;9.988;2023-03-01T04:07:16;8.10;69.90
14140;DHT22;7150;53.514;9.988;2023-03-01T04:09:43;8.20;69.80
14140;DHT22;7150;53.514;9.988;2023-03-01T04:12:09;8.20;69.60
14140;DHT22;7150;53.514;9.988;2023-03-01T04:14:35;8.30;69.40
14140;DHT22;7150;53.514;9.988;2023-03-01T04:17:00;8.30;69.20
14140;DHT22;7150;53.514;9.988;2023-03-01T04:19:26;8.30;69.10
14140;DHT22;7150;53.514;9.988;2023-03-01T04:21:52;8.30;68.80
14140;DHT22;7150;53.514;9.988;2023-03-01T04:24:18;8.40;68.70
14140;DHT22;7150;53.514;9.988;2023-03-01T04:26:43;8.40;68.60
14140;DHT22;7150;53.514;9.988;2023-03-01T04:29:09;8.40;68.40
14140;DHT22;7150;53.514;9.988;2023-03-01T04:31:35;8.50;68.30
14140;DHT22;7150;53.514;9.988;2023-03-01T04:34:00;8.40;68.30
14140;DHT22;7150;53.514;9.988;2023-03-01T04:36:28;8.50;68.20
14140;DHT22;7150;53.514;9.988;2023-03-01T04:38:54;8.60;68.30
14140;DHT22;7150;53.514;9.988;2023-03-01T04:41:22;8.60;68.30
14140;DHT22;7150;53.514;9.988;2023-03-01T04:43:48;8.60;68.20
14140;DHT22;7150;53.514;9.988;2023-03-01T04:46:16;8.60;67.90
14140;DHT22;7150;53.514;9.988;2023-03-01T04:48:43;8.70;67.80
14140;DHT22;7150;53.514;9.988;2023-03-01T04:51:08;8.70;67.80
14140;DHT22;7150;53.514;9.988;2023-03-01T04:53:35;8.70;67.80
14140;DHT22;7150;53.514;9.988;2023-03-01T04:56:03;8.70;67.70
14140;DHT22;7150;53.514;9.988;2023-03-01T04:58:29;8.70;67.60
14140;DHT22;7150;53.514;9.988;2023-03-01T05:00:55;8.70;67.30
14140;DHT22;7150;53.514;9.988;2023-03-01T05:03:21;8.70;67.40
14140;DHT22;7150;53.514;9.988;2023-03-01T05:05:49;8.70;67.60
14140;DHT22;7150;53.514;9.988;2023-03-01T05:08:15;8.70;67.50
14140;DHT22;7150;53.514;9.988;2023-03-01T05:10:45;8.80;67.10
14140;DHT22;7150;53.514;9.988;2023-03-01T05:13:12;8.80;67.00
14140;DHT22;7150;53.514;9.988;2023-03-01T05:15:47;8.80;66.80
14140;DHT22;7150;53.514;9.988;2023-03-01T05:18:13;8.80;66.60
14140;DHT22;7150;53.514;9.988;2023-03-01T05:20:39;8.80;66.40
14140;DHT22;7150;53.514;9.988;2023-03-01T05:23:04;8.90;66.30
14140;DHT22;7150;53.514;9.988;2023-03-01T05:25:32;8.90;66.20
14140;DHT22;7150;53.514;9.988;2023-03-01T05:27:58;8.90;66.30
14140;DHT22;7150;53.514;9.988;2023-03-01T05:30:24;8.90;66.40
14140;DHT22;7150;53.514;9.988;2023-03-01T05:32:50;8.90;66.20
14140;DHT22;7150;53.514;9.988;2023-03-01T05:35:21;8.90;66.20
14140;DHT22;7150;53.514;9.988;2023-03-01T05:37:48;9.00;66.30
14140;DHT22;7150;53.514;9.988;2023-03-01T05:40:16;9.00;66.20
14140;DHT22;7150;53.514;9.988;2023-03-01T05:42:47;9.00;66.20
14140;DHT22;7150;53.514;9.988;2023-03-01T05:45:14;9.00;66.10
14140;DHT22;7150;53.514;9.988;2023-03-01T05:47:41;9.00;66.10
14140;DHT22;7150;53.514;9.988;2023-03-01T05:50:18;9.00;66.80
14140;DHT22;7150;53.514;9.988;2023-03-01T05:52:46;9.10;66.30
14140;DHT22;7150;53.514;9.988;2023-03-01T05:55:12;9.00;66.30
14140;DHT22;7150;53.514;9.988;2023-03-01T05:57:37;9.00;66.40
14140;DHT22;7150;53.514;9.988;2023-03-01T06:00:03;9.00;66.50
14140;DHT22;7150;53.514;9.988;2023-03-01T06:02:29;9.10;66.50
14140;DHT22;7150;53.514;9.988;2023-03-01T06:04:55;9.10;66.50
14140;DHT22;7150;53.514;9.988;2023-03-01T06:07:20;9.00;66.50
14140;DHT22;7150;53.514;9.988;2023-03-01T06:09:46;9.10;66.40
14140;DHT22;7150;53.514;9.988;2023-03-01T06:12:11;9.10;66.40
14140;DHT22;7150;53.514;9.988;2023-03-01T06:14:37;9.10;66.60
14140;DHT22;7150;53.514;9.988;2023-03-01T06:17:03;9.10;66.60
14140;DHT22;7150;53.514;9.988;2023-03-01T06:19:28;9.10;66.50
14140;DHT22;7150;53.514;9.988;2023-03-01T06:21:54;9.10;66.20
14140;DHT22;7150;53.514;9.988;2023-03-01T06:24:19;9.10;66.00
14140;DHT22;7150;53.514;9.988;2023-03-01T06:26:45;9.10;65.90
14140;DHT22;7150;53.514;9.988;2023-03-01T06:29:10;9.20;66.20
14140;DHT22;7150;53.514;9.988;2023-03-01T06:31:36;9.20;66.30
14140;DHT22;7150;53.514;9.988;2023-03-01T06:34:02;9.20;66.40
14140;DHT22;7150;53.514;9.988;2023-03-01T06:36:27;9.20;66.10
14140;DHT22;7150;53.514;9.988;2023-03-01T06:38:53;9.30;65.90
14140;DHT22;7150;53.514;9.988;2023-03-01T06:41:18;9.20;65.50
14140;DHT22;7150;53.514;9.988;2023-03-01T06:43:44;9.20;65.00
14140;DHT22;7150;53.514;9.988;2023-03-01T06:46:09;9.20;64.60
14140;DHT22;7150;53.514;9.988;2023-03-01T06:48:35;9.20;64.30
14140;DHT22;7150;53.514;9.988;2023-03-01T06:51:01;9.20;64.50
14140;DHT22;7150;53.514;9.988;2023-03-01T06:53:28;9.20;64.70
14140;DHT22;7150;53.514;9.988;2023-03-01T06:55:55;9.20;64.80
14140;DHT22;7150;53.514;9.988;2023-03-01T06:58:21;9.10;64.80
14140;DHT22;7150;53.514;9.988;2023-03-01T07:00:46;9.10;64.70
14140;DHT22;7150;53.514;9.988;2023-03-01T07:03:12;9.20;64.70
14140;DHT22;7150;53.514;9.988;2023-03-01T07:05:37;9.20;65.00
14140;DHT22;7150;53.514;9.988;2023-03-01T07:08:03;9.20;65.00
14140;DHT22;7150;53.514;9.988;2023-03-01T07:10:28;9.20;64.90
14140;DHT22;7150;53.514;9.988;2023-03-01T07:12:55;9.30;65.00
14140;DHT22;7150;53.514;9.988;2023-03-01T07:15:20;9.30;65.00
14140;DHT22;7150;53.514;9.988;2023-03-01T07:17:46;9.30;64.90
14140;DHT22;7150;53.514;9.988;2023-03-01T07:20:13;9.40;65.00
14140;DHT22;7150;53.514;9.988;2023-03-01T07:22:42;9.40;65.20
14140;DHT22;7150;53.514;9.988;2023-03-01T07:25:08;9.40;65.10
14140;DHT22;7150;53.514;9.988;2023-03-01T07:27:34;9.50;65.00
14140;DHT22;7150;53.514;9.988;2023-03-01T07:29:59;9.50;64.90
14140;DHT22;7150;53.514;9.988;2023-03-01T07:32:25;9.50;64.40
14140;DHT22;7150;53.514;9.988;2023-03-01T07:34:51;9.50;64.60
14140;DHT22;7150;53.514;9.988;2023-03-01T07:37:16;9.50;64.80
14140;DHT22;7150;53.514;9.988;2023-03-01T07:39:42;9.50;64.80
14140;DHT22;7150;53.514;9.988;2023-03-01T07:42:08;9.50;64.90
14140;DHT22;7150;53.514;9.988;2023-03-01T07:44:33;9.50;64.50
14140;DHT22;7150;53.514;9.988;2023-03-01T07:47:00;9.60;64.20
14140;DHT22;7150;53.514;9.988;2023-03-01T07:49:25;9.60;63.50
14140;DHT22;7150;53.514;9.988;2023-03-01T07:51:52;9.60;63.40
14140;DHT22;7150;53.514;9.988;2023-03-01T07:54:18;9.60;63.10
14140;DHT22;7150;53.514;9.988;2023-03-01T07:56:43;9.70;63.10
14140;DHT22;7150;53.514;9.988;2023-03-01T07:59:09;9.80;63.10
14140;DHT22;7150;53.514;9.988;2023-03-01T08:01:35;9.80;63.00
14140;DHT22;7150;53.514;9.988;2023-03-01T08:04:00;9.80;62.80
14140;DHT22;7150;53.514;9.988;2023-03-01T08:06:27;9.80;62.80
14140;DHT22;7150;53.514;9.988;2023-03-01T08:08:52;9.90;63.00
14140;DHT22;7150;53.514;9.988;2023-03-01T08:11:21;9.90;63.10
14140;DHT22;7150;53.514;9.988;2023-03-01T08:13:48;9.90;63.10
14140;DHT22;7150;53.514;9.988;2023-03-01T08:16:15;10.00;62.20
14140;DHT22;7150;53.514;9.988;2023-03-01T08:18:41;10.00;62.40
14140;DHT22;7150;53.514;9.988;2023-03-01T08:21:12;10.10;62.60
14140;DHT22;7150;53.514;9.988;2023-03-01T08:23:38;10.10;62.70
14140;DHT22;7150;53.514;9.988;2023-03-01T08:26:15;10.20;62.90
14140;DHT22;7150;53.514;9.988;2023-03-01T08:28:41;10.20;63.10
14140;DHT22;7150;53.514;9.988;2023-03-01T08:33:40;10.20;63.40
14140;DHT22;7150;53.514;9.988;2023-03-01T08:36:06;10.20;63.80
14140;DHT22;7150;53.514;9.988;2023-03-01T08:38:33;10.20;63.80
14140;DHT22;7150;53.514;9.988;2023-03-01T08:41:02;10.30;64.00
14140;DHT22;7150;53.514;9.988;2023-03-01T08:43:29;10.30;64.30
14140;DHT22;7150;53.514;9.988;2023-03-01T08:45:54;10.40;64.50
14140;DHT22;7150;53.514;9.988;2023-03-01T08:48:20;10.40;64.60
14140;DHT22;7150;53.514;9.988;2023-03-01T08:50:45;10.40;64.80
14140;DHT22;7150;53.514;9.988;2023-03-01T08:53:11;10.40;64.80
14140;DHT22;7150;53.514;9.988;2023-03-01T08:55:36;10.40;65.00
14140;DHT22;7150;53.514;9.988;2023-03-01T08:58:02;10.40;64.60
14140;DHT22;7150;53.514;9.988;2023-03-01T09:00:27;10.40;64.80
14140;DHT22;7150;53.514;9.988;2023-03-01T09:02:53;10.40;65.30
14140;DHT22;7150;53.514;9.988;2023-03-01T09:05:18;10.40;65.30
14140;DHT22;7150;53.514;9.988;2023-03-01T09:07:44;10.50;65.40
14140;DHT22;7150;53.514;9.988;2023-03-01T09:10:10;10.50;65.40
14140;DHT22;7150;53.514;9.988;2023-03-01T09:12:35;10.50;65.60
14140;DHT22;7150;53.514;9.988;2023-03-01T09:15:01;10.60;65.60
14140;DHT22;7150;53.514;9.988;2023-03-01T09:17:26;10.60;65.60
14140;DHT22;7150;53.514;9.988;2023-03-01T09:19:52;10.70;65.60
14140;DHT22;7150;53.514;9.988;2023-03-01T09:22:17;10.70;65.50
14140;DHT22;7150;53.514;9.988;2023-03-01T09:24:43;10.70;65.40
14140;DHT22;7150;53.514;9.988;2023-03-01T09:27:09;10.80;65.50
14140;DHT22;7150;53.514;9.988;2023-03-01T09:29:36;10.80;65.50
14140;DHT22;7150;53.514;9.988;2023-03-01T09:32:02;10.80;65.70
14140;DHT22;7150;53.514;9.988;2023-03-01T09:34:27;10.90;66.00
14140;DHT22;7150;53.514;9.988;2023-03-01T09:36:53;10.90;66.00
14140;DHT22;7150;53.514;9.988;2023-03-01T09:39:19;10.90;66.00
14140;DHT22;7150;53.514;9.988;2023-03-01T09:41:58;10.90;66.40
14140;DHT22;7150;53.514;9.988;2023-03-01T09:47:16;10.90;65.80
14140;DHT22;7150;53.514;9.988;2023-03-01T09:49:47;10.90;66.00
14140;DHT22;7150;53.514;9.988;2023-03-01T09:52:36;10.80;66.10
14140;DHT22;7150;53.514;9.988;2023-03-01T09:55:11;10.90;66.30
14140;DHT22;7150;53.514;9.988;2023-03-01T09:57:53;10.90;66.50
14140;DHT22;7150;53.514;9.988;2023-03-01T10:00:33;10.90;66.90
14140;DHT22;7150;53.514;9.988;2023-03-01T10:03:34;11.00;67.00
14140;DHT22;7150;53.514;9.988;2023-03-01T10:06:11;11.10;67.20
14140;DHT22;7150;53.514;9.988;2023-03-01T10:08:56;11.10;67.00
14140;DHT22;7150;53.514;9.988;2023-03-01T10:11:29;11.10;67.20
14140;DHT22;7150;53.514;9.988;2023-03-01T10:14:01;11.00;67.40
14140;DHT22;7150;53.514;9.988;2023-03-01T10:16:43;11.00;67.60
14140;DHT22;7150;53.514;9.988;2023-03-01T10:19:18;11.10;67.70
14140;DHT22;7150;53.514;9.988;2023-03-01T10:21:45;11.10;67.70
14140;DHT22;7150;53.514;9.988;2023-03-01T10:24:17;11.20;68.10
14140;DHT22;7150;53.514;9.988;2023-03-01T10:29:14;11.30;68.20
14140;DHT22;7150;53.514;9.988;2023-03-01T10:31:48;11.40;68.20
14140;DHT22;7150;53.514;9.988;2023-03-01T10:34:28;11.40;68.40
14140;DHT22;7150;53.514;9.988;2023-03-01T10:37:10;11.40;68.40
14140;DHT22;7150;53.514;9.988;2023-03-01T10:39:36;11.50;68.40
14140;DHT22;7150;53.514;9.988;2023-03-01T10:42:05;11.50;68.40
14140;DHT22;7150;53.514;9.988;2023-03-01T10:44:45;11.50;68.40
14140;DHT22;7150;53.514;9.988;2023-03-01T10:47:23;11.60;68.30
14140;DHT22;7150;53.514;9.988;2023-03-01T10:50:01;11.60;68.50
14140;DHT22;7150;53.514;9.988;2023-03-01T10:52:34;11.60;68.40
14140;DHT22;7150;53.514;9.988;2023-03-01T10:55:04;11.60;68.80
14140;DHT22;7150;53.514;9.988;2023-03-01T10:57:38;11.60;68.90
14140;DHT22;7150;53.514;9.988;2023-03-01T11:00:24;11.70;69.00
14140;DHT22;7150;53.514;9.988;2023-03-01T11:05:25;11.70;69.20
14140;DHT22;7150;53.514;9.988;2023-03-01T11:07:55;11.70;69.10
14140;DHT22;7150;53.514;9.988;2023-03-01T11:10:27;11.70;69.20
14140;DHT22;7150;53.514;9.988;2023-03-01T11:13:05;11.70;69.30
14140;DHT22;7150;53.514;9.988;2023-03-01T11:15:31;11.70;69.30
14140;DHT22;7150;53.514;9.988;2023-03-01T11:17:57;11.70;69.50
14140;DHT22;7150;53.514;9.988;2023-03-01T11:20:24;11.70;69.70
14140;DHT22;7150;53.514;9.988;2023-03-01T11:22:54;11.70;70.00
14140;DHT22;7150;53.514;9.988;2023-03-01T11:25:25;11.70;70.10
14140;DHT22;7150;53.514;9.988;2023-03-01T11:27:52;11.70;70.30
14140;DHT22;7150;53.514;9.988;2023-03-01T11:30:26;11.80;70.40
14140;DHT22;7150;53.514;9.988;2023-03-01T11:32:56;11.80;70.50
14140;DHT22;7150;53.514;9.988;2023-03-01T11:35:27;11.80;70.90
14140;DHT22;7150;53.514;9.988;2023-03-01T11:38:04;11.80;71.00
14140;DHT22;7150;53.514;9.988;2023-03-01T11:43:28;11.80;71.30
14140;DHT22;7150;53.514;9.988;2023-03-01T11:48:50;11.80;71.60
14140;DHT22;7150;53.514;9.988;2023-03-01T11:54:42;11.90;71.80
14140;DHT22;7150;53.514;9.988;2023-03-01T11:57:48;11.90;72.00
14140;DHT22;7150;53.514;9.988;2023-03-01T12:08:45;12.00;72.20
14140;DHT22;7150;53.514;9.988;2023-03-01T12:12:36;11.90;72.50
14140;DHT22;7150;53.514;9.988;2023-03-01T12:14:45;11.90;72.50
14140;DHT22;7150;53.514;9.988;2023-03-01T12:25:37;12.00;72.60
14140;DHT22;7150;53.514;9.988;2023-03-01T12:31:08;12.00;72.60
14140;DHT22;7150;53.514;9.988;2023-03-01T12:34:34;12.00;72.50
14140;DHT22;7150;53.514;9.988;2023-03-01T12:51:04;12.10;72.70
14140;DHT22;7150;53.514;9.988;2023-03-01T12:53:35;12.10;73.10
14140;DHT22;7150;53.514;9.988;2023-03-01T12:56:07;12.20;73.10
14140;DHT22;7150;53.514;9.988;2023-03-01T12:59:02;12.30;73.00
14140;DHT22;7150;53.514;9.988;2023-03-01T13:01:48;12.30;72.90
14140;DHT22;7150;53.514;9.988;2023-03-01T13:15:35;12.50;73.30
14140;DHT22;7150;53.514;9.988;2023-03-01T13:18:03;12.50;73.30
14140;DHT22;7150;53.514;9.988;2023-03-01T13:20:50;12.60;73.30
14140;DHT22;7150;53.514;9.988;2023-03-01T13:26:24;12.70;73.20
14140;DHT22;7150;53.514;9.988;2023-03-01T13:28:55;12.80;73.30
14140;DHT22;7150;53.514;9.988;2023-03-01T13:34:00;12.90;73.20
14140;DHT22;7150;53.514;9.988;2023-03-01T13:46:58;13.00;72.20
14140;DHT22;7150;53.514;9.988;2023-03-01T13:49:27;13.00;72.40
14140;DHT22;7150;53.514;9.988;2023-03-01T13:51:54;12.90;72.40
14140;DHT22;7150;53.514;9.988;2023-03-01T13:54:29;12.90;72.50
14140;DHT22;7150;53.514;9.988;2023-03-01T13:56:57;12.90;72.40
14140;DHT22;7150;53.514;9.988;2023-03-01T13:59:23;12.90;72.40
14140;DHT22;7150;53.514;9.988;2023-03-01T14:02:00;12.90;72.50
14140;DHT22;7150;53.514;9.988;2023-03-01T14:04:31;12.90;72.60
14140;DHT22;7150;53.514;9.988;2023-03-01T14:07:32;12.90;72.60
14140;DHT22;7150;53.514;9.988;2023-03-01T14:10:00;12.90;72.30
14140;DHT22;7150;53.514;9.988;2023-03-01T14:15:39;12.90;72.60
14140;DHT22;7150;53.514;9.988;2023-03-01T14:18:19;12.90;72.50
14140;DHT22;7150;53.514;9.988;2023-03-01T14:20:46;12.90;72.80
14140;DHT22;7150;53.514;9.988;2023-03-01T14:23:22;12.90;73.00
14140;DHT22;7150;53.514;9.988;2023-03-01T14:25:56;12.90;72.80
14140;DHT22;7150;53.514;9.988;2023-03-01T14:28:27;12.90;73.10
14140;DHT22;7150;53.514;9.988;2023-03-01T14:30:55;12.90;73.30
14140;DHT22;7150;53.514;9.988;2023-03-01T14:33:25;12.90;73.30
14140;DHT22;7150;53.514;9.988;2023-03-01T14:35:57;12.90;73.30
14140;DHT22;7150;53.514;9.988;2023-03-01T14:38:38;12.90;73.30
14140;DHT22;7150;53.514;9.988;2023-03-01T14:41:17;12.80;73.40
14140;DHT22;7150;53.514;9.988;2023-03-01T14:43:46;12.80;73.50
14140;DHT22;7150;53.514;9.988;2023-03-01T14:46:20;12.90;73.50
14140;DHT22;7150;53.514;9.988;2023-03-01T14:48:49;12.90;73.20
14140;DHT22;7150;53.514;9.988;2023-03-01T14:51:15;12.90;73.30
14140;DHT22;7150;53.514;9.988;2023-03-01T14:53:41;12.80;73.50
14140;DHT22;7150;53.514;9.988;2023-03-01T14:56:14;12.80;74.20
14140;DHT22;7150;53.514;9.988;2023-03-01T14:58:42;12.90;73.00
14140;DHT22;7150;53.514;9.988;2023-03-01T15:01:13;12.90;73.10
14140;DHT22;7150;53.514;9.988;2023-03-01T15:03:45;12.90;73.20
14140;DHT22;7150;53.514;9.988;2023-03-01T15:06:16;12.90;73.10
14140;DHT22;7150;53.514;9.988;2023-03-01T15:08:48;13.00;73.00
14140;DHT22;7150;53.514;9.988;2023-03-01T15:13:54;13.10;72.50
14140;DHT22;7150;53.514;9.988;2023-03-01T15:16:24;13.10;72.40
14140;DHT22;7150;53.514;9.988;2023-03-01T15:18:55;13.00;72.20
14140;DHT22;7150;53.514;9.988;2023-03-01T15:21:27;13.00;72.30
14140;DHT22;7150;53.514;9.988;2023-03-01T15:24:13;13.00;72.30
14140;DHT22;7150;53.514;9.988;2023-03-01T15:26:53;12.90;72.30
14140;DHT22;7150;53.514;9.988;2023-03-01T15:29:25;12.90;72.10
14140;DHT22;7150;53.514;9.988;2023-03-01T15:32:05;12.90;72.30
14140;DHT22;7150;53.514;9.988;2023-03-01T15:34:36;12.90;72.20
14140;DHT22;7150;53.514;9.988;2023-03-01T15:37:35;12.80;72.30
14140;DHT22;7150;53.514;9.988;2023-03-01T15:39:54;12.80;72.10
14140;DHT22;7150;53.514;9.988;2023-03-01T15:47:47;12.80;71.80
14140;DHT22;7150;53.514;9.988;2023-03-01T15:50:25;12.90;71.80
14140;DHT22;7150;53.514;9.988;2023-03-01T15:52:51;12.80;71.60
14140;DHT22;7150;53.514;9.988;2023-03-01T15:55:23;12.90;71.50
14140;DHT22;7150;53.514;9.988;2023-03-01T15:57:49;12.80;71.10
14140;DHT22;7150;53.514;9.988;2023-03-01T16:00:16;12.90;70.60
14140;DHT22;7150;53.514;9.988;2023-03-01T16:02:43;12.80;70.50
14140;DHT22;7150;53.514;9.988;2023-03-01T16:05:26;12.90;70.50
14140;DHT22;7150;53.514;9.988;2023-03-01T16:07:52;12.80;70.40
14140;DHT22;7150;53.514;9.988;2023-03-01T16:10:18;12.90;70.30
14140;DHT22;7150;53.514;9.988;2023-03-01T16:12:44;12.90;70.30
14140;DHT22;7150;53.514;9.988;2023-03-01T16:15:24;12.90;70.20
14140;DHT22;7150;53.514;9.988;2023-03-01T16:17:50;12.80;69.80
14140;DHT22;7150;53.514;9.988;2023-03-01T16:20:16;12.80;70.10
14140;DHT22;7150;53.514;9.988;2023-03-01T16:22:42;12.80;70.50
14140;DHT22;7150;53.514;9.988;2023-03-01T16:25:10;12.70;70.80
14140;DHT22;7150;53.514;9.988;2023-03-01T16:27:37;12.70;71.20
14140;DHT22;7150;53.514;9.988;2023-03-01T16:30:04;12.70;71.50
14140;DHT22;7150;53.514;9.988;2023-03-01T16:32:30;12.70;71.80
14140;DHT22;7150;53.514;9.988;2023-03-01T16:34:55;12.70;72.10
14140;DHT22;7150;53.514;9.988;2023-03-01T16:37:21;12.70;72.30
14140;DHT22;7150;53.514;9.988;2023-03-01T16:39:47;12.70;72.40
14140;DHT22;7150;53.514;9.988;2023-03-01T16:42:16;12.70;72.50
14140;DHT22;7150;53.514;9.988;2023-03-01T16:44:41;12.60;72.30
14140;DHT22;7150;53.514;9.988;2023-03-01T16:47:07;12.70;72.30
14140;DHT22;7150;53.514;9.988;2023-03-01T16:49:32;12.60;72.20
14140;DHT22;7150;53.514;9.988;2023-03-01T16:51:58;12.60;72.00
14140;DHT22;7150;53.514;9.988;2023-03-01T16:54:24;12.60;71.90
14140;DHT22;7150;53.514;9.988;2023-03-01T16:56:50;12.60;71.80
14140;DHT22;7150;53.514;9.988;2023-03-01T16:59:15;12.60;71.90
14140;DHT22;7150;53.514;9.988;2023-03-01T17:01:41;12.60;71.80
14140;DHT22;7150;53.514;9.988;2023-03-01T17:04:11;12.50;71.60
14140;DHT22;7150;53.514;9.988;2023-03-01T17:06:36;12.60;71.60
14140;DHT22;7150;53.514;9.988;2023-03-01T17:09:02;12.60;71.50
14140;DHT22;7150;53.514;9.988;2023-03-01T17:11:28;12.60;71.40
14140;DHT22;7150;53.514;9.988;2023-03-01T17:13:53;12.50;71.30
14140;DHT22;7150;53.514;9.988;2023-03-01T17:16:19;12.60;71.40
14140;DHT22;7150;53.514;9.988;2023-03-01T17:18:46;12.40;71.50
14140;DHT22;7150;53.514;9.988;2023-03-01T17:21:14;12.40;71.80
14140;DHT22;7150;53.514;9.988;2023-03-01T17:23:41;12.40;72.10
14140;DHT22;7150;53.514;9.988;2023-03-01T17:26:07;12.40;72.40
14140;DHT22;7150;53.514;9.988;2023-03-01T17:28:34;12.30;72.50
14140;DHT22;7150;53.514;9.988;2023-03-01T17:31:01;12.40;73.10
14140;DHT22;7150;53.514;9.988;2023-03-01T17:33:27;12.40;73.40
14140;DHT22;7150;53.514;9.988;2023-03-01T17:35:55;12.30;73.60
14140;DHT22;7150;53.514;9.988;2023-03-01T17:38:21;12.30;73.90
14140;DHT22;7150;53.514;9.988;2023-03-01T17:40:46;12.30;74.10
14140;DHT22;7150;53.514;9.988;2023-03-01T17:43:13;12.30;74.30
14140;DHT22;7150;53.514;9.988;2023-03-01T17:45:39;12.30;74.50